DW4236 Weather Reports


time (UTC)temp
C
wind
direction
speed
KPH
gust
KPH
rain 1hr
cm
rain 24hr
cm
rain mn
cm
humidity
%
barometer
mb
20240614114604 22 304 1.6 4.8 0.00 0.00 0.00 82 1012.8
20240614113605 21 276 3.2 11.3 0.00 0.00 0.00 82 1012.9
20240614113104 21 285 3.2 14.5 0.00 0.00 0.00 82 1013.0
20240614112605 21 259 1.6 8.0 0.00 0.00 0.00 83 1012.8
20240614112105 21 227 1.6 4.8 0.00 0.00 0.00 83 1012.9
20240614111604 21 297 0.0 3.2 0.00 0.00 0.00 83 1013.1
20240614110605 21 213 1.6 3.2 0.00 0.00 0.00 83 1013.1
20240614110105 21 213 0.0 1.6 0.00 0.00 0.00 83 1013.0
20240614105604 21 232 0.0 4.8 0.00 0.00 0.00 83 1013.0
20240614104604 21 239 1.6 8.0 0.00 0.00 0.00 83 1013.0
20240614104105 20 315 0.0 0.0 0.00 0.00 0.00 83 1012.9
20240614102604 20 315 1.6 4.8 0.00 0.00 0.00 83 1012.8
20240614102104 20 316 1.6 12.9 0.00 0.00 0.00 84 1012.8
20240614101605 20 300 0.0 4.8 0.00 0.00 0.00 84 1012.6
20240614101104 20 222 0.0 4.8 0.00 0.00 0.00 84 1012.7
20240614100106 20 230 1.6 4.8 0.00 0.00 0.00 84 1012.5
20240614095604 20 259 1.6 4.8 0.00 0.00 0.00 84 1012.5
20240614094605 20 295 3.2 4.8 0.00 0.00 0.00 84 1012.6
20240614094104 20 270 4.8 14.5 0.00 0.00 0.00 84 1012.4
20240614093604 20 262 1.6 4.8 0.00 0.00 0.00 84 1012.4
20240614093104 20 291 0.0 9.7 0.00 0.00 0.00 84 1012.3
20240614092605 20 267 1.6 11.3 0.00 0.00 0.00 84 1012.4
20240614092104 20 284 4.8 9.7 0.00 0.00 0.00 84 1012.4
20240614091605 20 287 1.6 9.7 0.00 0.00 0.00 84 1012.3
20240614091104 20 251 0.0 1.6 0.00 0.00 0.00 83 1012.3
20240614090604 20 257 1.6 12.9 0.00 0.00 0.00 83 1012.3
20240614090105 20 254 1.6 8.0 0.00 0.00 0.00 83 1012.5
20240614085605 20 267 0.0 8.0 0.00 0.00 0.00 83 1012.6
20240614085104 20 214 1.6 4.8 0.00 0.00 0.00 83 1012.7
20240614084604 20 305 0.0 3.2 0.00 0.00 0.00 82 1012.7
20240614084104 20 296 1.6 12.9 0.00 0.00 0.00 82 1012.7
20240614083604 20 283 3.2 9.7 0.00 0.00 0.00 82 1012.6
20240614083104 20 291 3.2 11.3 0.00 0.00 0.00 82 1012.6
20240614082604 20 263 3.2 11.3 0.00 0.00 0.00 83 1012.6
20240614082104 20 195 0.0 3.2 0.00 0.00 0.00 82 1012.6
20240614081604 20 240 1.6 4.8 0.00 0.00 0.00 82 1012.5
20240614081105 21 297 1.6 4.8 0.00 0.00 0.00 82 1012.6
20240614080604 21 218 1.6 4.8 0.00 0.00 0.00 82 1012.6
20240614075104 21 302 1.6 4.8 0.00 0.00 0.00 81 1012.7
20240614074105 21 264 3.2 9.7 0.00 0.00 0.00 81 1012.7
20240614073605 21 304 4.8 9.7 0.00 0.00 0.00 81 1012.7
20240614073104 21 265 1.6 8.0 0.00 0.00 0.00 81 1012.6
20240614072606 21 326 1.6 9.7 0.00 0.00 0.00 80 1012.6
20240614072105 21 317 1.6 4.8 0.00 0.00 0.00 81 1012.6
20240614071604 21 306 3.2 11.3 0.00 0.00 0.00 81 1012.6
20240614071104 21 280 1.6 8.0 0.00 0.00 0.00 80 1012.7
20240614070604 21 267 1.6 9.7 0.00 0.00 0.00 80 1012.7
20240614070104 21 297 3.2 9.7 0.00 0.00 0.00 80 1012.9
20240614065605 21 292 0.0 0.0 0.00 0.00 0.00 80 1012.9
20240614065103 21 292 1.6 4.8 0.00 0.00 0.00 80 1013.0
20240614064604 21 303 1.6 4.8 0.00 0.00 0.00 80 1013.0
20240614064104 21 309 1.6 4.8 0.00 0.00 0.00 79 1013.1
20240614063604 21 294 1.6 4.8 0.00 0.00 0.00 79 1013.1
20240614063105 21 186 0.0 3.2 0.00 0.00 0.00 79 1013.3
20240614062604 21 235 0.0 4.8 0.00 0.00 0.00 78 1013.4
20240614062105 21 280 0.0 3.2 0.00 0.00 0.00 78 1013.4
20240614061104 21 277 0.0 8.0 0.00 0.00 0.00 77 1013.6
20240614060604 22 267 1.6 11.3 0.00 0.00 0.00 77 1013.6
20240614060104 22 249 3.2 14.5 0.00 0.00 0.00 77 1013.6
20240614055604 22 281 3.2 14.5 0.00 0.00 0.00 77 1013.7
20240614055105 22 278 6.4 20.9 0.00 0.00 0.00 77 1013.7
20240614054604 22 274 0.0 4.8 0.00 0.00 0.00 76 1013.7
20240614054105 22 259 6.4 20.9 0.00 0.00 0.00 76 1013.7
20240614053604 22 272 3.2 19.3 0.00 0.00 0.00 76 1013.6
20240614053104 22 312 4.8 14.5 0.00 0.00 0.00 76 1013.7
20240614052104 22 298 3.2 11.3 0.00 0.00 0.00 76 1013.8
20240614051605 22 271 8.0 19.3 0.00 0.00 0.00 75 1013.8
20240614051104 22 297 3.2 12.9 0.00 0.00 0.00 75 1013.9
20240614050605 22 260 3.2 19.3 0.00 0.00 0.00 75 1014.0
20240614050104 22 287 6.4 16.1 0.00 0.00 0.00 75 1014.0
20240614045604 22 305 1.6 11.3 0.00 0.00 0.00 75 1014.0
20240614045105 22 262 4.8 12.9 0.00 0.00 0.00 75 1014.1
20240614044604 22 247 8.0 19.3 0.00 0.00 0.00 75 1014.1
20240614044104 22 280 3.2 16.1 0.00 0.00 0.00 75 1014.2
20240614043105 22 259 3.2 19.3 0.00 0.00 0.00 74 1014.3
20240614042605 22 227 4.8 12.9 0.00 0.00 0.00 74 1014.3
20240614042105 22 292 1.6 16.1 0.00 0.00 0.00 74 1014.4
20240614041104 23 291 4.8 11.3 0.00 0.00 0.00 74 1014.6
20240614040604 23 320 3.2 11.3 0.00 0.00 0.00 74 1014.7
20240614040104 23 299 3.2 8.0 0.00 0.00 0.00 73 1014.8
20240614035604 23 318 3.2 4.8 0.00 0.00 0.00 73 1014.8
20240614035106 23 303 3.2 4.8 0.00 0.00 0.00 72 1014.7
20240614034604 23 308 3.2 11.3 0.00 0.00 0.00 72 1014.7
20240614034104 23 306 3.2 4.8 0.00 0.00 0.00 72 1014.7
20240614033605 23 312 1.6 9.7 0.00 0.00 0.00 72 1014.7
20240614033104 23 299 0.0 8.0 0.00 0.00 0.00 72 1014.7
20240614032604 23 323 1.6 8.0 0.00 0.00 0.00 72 1014.6
20240614032104 23 282 1.6 4.8 0.00 0.00 0.00 71 1014.7
20240614031604 23 211 4.8 11.3 0.00 0.00 0.00 71 1014.7
20240614031104 23 301 3.2 12.9 0.00 0.00 0.00 71 1014.7
20240614030604 23 299 4.8 14.5 0.00 0.00 0.00 72 1014.6
20240614025604 22 310 1.6 4.8 0.00 0.00 0.00 72 1014.5
20240614025104 22 308 0.0 3.2 0.00 0.00 0.00 71 1014.5
20240614024604 22 304 1.6 8.0 0.00 0.00 0.00 71 1014.5
20240614024105 23 245 0.0 3.2 0.00 0.00 0.00 71 1014.5
20240614023605 23 252 1.6 4.8 0.00 0.00 0.00 70 1014.6
20240614022604 23 238 3.2 9.7 0.00 0.00 0.00 70 1014.5
20240614022104 23 251 3.2 9.7 0.00 0.00 0.00 70 1014.5
20240614021604 22 230 1.6 4.8 0.00 0.00 0.00 70 1014.6
20240614021105 22 207 1.6 4.8 0.00 0.00 0.00 70 1014.7
20240614020104 23 291 0.0 9.7 0.00 0.00 0.00 69 1014.8
20240614015604 23 306 0.0 3.2 0.00 0.00 0.00 69 1014.8
20240614015104 22 291 1.6 3.2 0.00 0.00 0.00 69 1014.9
20240614014605 22 288 0.0 1.6 0.00 0.00 0.00 69 1014.9
20240614014104 22 288 0.0 3.2 0.00 0.00 0.00 69 1015.0
20240614013604 23 197 0.0 0.0 0.00 0.00 0.00 68 1015.0
20240614013105 23 197 0.0 0.0 0.00 0.00 0.00 68 1014.9
20240614012604 23 197 0.0 0.0 0.00 0.00 0.00 67 1014.8
20240614012105 23 197 0.0 0.0 0.00 0.00 0.00 67 1014.7
20240614011605 23 197 0.0 1.6 0.00 0.00 0.00 66 1014.7
20240614011104 23 197 0.0 1.6 0.00 0.00 0.00 66 1014.6
20240614010605 23 197 0.0 1.6 0.00 0.00 0.00 65 1014.7
20240614010105 24 197 0.0 4.8 0.00 0.00 0.00 64 1014.6
20240614005604 24 197 0.0 4.8 0.00 0.00 0.00 64 1014.5
20240614005105 24 292 1.6 4.8 0.00 0.00 0.00 63 1014.5
20240614004605 25 286 1.6 4.8 0.00 0.00 0.00 62 1014.5
20240614003104 25 217 1.6 4.8 0.00 0.00 0.00 60 1014.5
20240614002605 25 247 1.6 9.7 0.00 0.00 0.00 60 1014.5
20240614002104 25 254 3.2 12.9 0.00 0.00 0.00 59 1014.5
20240614001104 25 190 1.6 9.7 0.00 0.00 0.00 59 1014.4
20240614000604 25 215 1.6 11.3 0.00 0.00 0.00 58 1014.5
20240613235604 26 245 3.2 11.3 0.00 0.00 0.00 57 1014.6
20240613235105 26 224 3.2 9.7 0.00 0.00 0.00 57 1014.7
20240613234605 26 200 0.0 8.0 0.00 0.00 0.00 57 1014.8
20240613234104 26 256 1.6 14.5 0.00 0.00 0.00 56 1014.9
20240613233604 26 220 6.4 22.5 0.00 0.00 0.00 55 1014.7
20240613233104 27 223 8.0 19.3 0.00 0.00 0.00 55 1014.7
20240613232605 27 214 4.8 16.1 0.00 0.00 0.00 54 1014.6
20240613231604 28 219 3.2 11.3 0.00 0.00 0.00 50 1014.6
20240613231104 28 263 1.6 8.0 0.00 0.00 0.00 51 1014.6
20240613230604 28 296 3.2 9.7 0.00 0.00 0.00 49 1014.4
20240613230105 28 300 3.2 8.0 0.00 0.00 0.00 48 1014.5
20240613225604 28 239 1.6 8.0 0.00 0.00 0.00 49 1014.4
20240613224604 28 267 0.0 8.0 0.00 0.00 0.00 49 1014.4
20240613223105 28 289 4.8 12.9 0.00 0.00 0.00 47 1014.2
20240613222605 29 261 4.8 14.5 0.00 0.00 0.00 47 1014.1
20240613222104 29 227 8.0 19.3 0.00 0.00 0.00 46 1014.2
20240613221104 30 246 3.2 12.9 0.00 0.00 0.00 46 1014.2
20240613215605 30 281 8.0 16.1 0.00 0.00 0.00 45 1014.0
20240613215104 30 284 3.2 19.3 0.00 0.00 0.00 45 1014.1
20240613214604 30 301 11.3 20.9 0.00 0.00 0.00 43 1014.1
20240613214104 30 308 9.7 19.3 0.00 0.00 0.00 43 1014.2
20240613213104 30 274 9.7 19.3 0.00 0.00 0.00 43 1014.2
20240613212605 30 291 8.0 12.9 0.00 0.00 0.00 41 1014.3
20240613212105 31 293 3.2 12.9 0.00 0.00 0.00 44 1014.3
20240613211604 30 56 3.2 12.9 0.00 0.00 0.00 43 1014.3
20240613211104 30 317 9.7 24.1 0.00 0.00 0.00 43 1014.4
20240613210604 30 300 11.3 22.5 0.00 0.00 0.00 42 1014.3
20240613210104 30 297 12.9 20.9 0.00 0.00 0.00 42 1014.4
20240613205604 31 298 11.3 22.5 0.00 0.00 0.00 42 1014.5
20240613204603 30 291 8.0 12.9 0.00 0.00 0.00 44 1014.5
20240613204105 30 256 4.8 14.5 0.00 0.00 0.00 43 1014.5
20240613203605 31 292 3.2 14.5 0.00 0.00 0.00 45 1014.5
20240613202604 30 289 4.8 16.1 0.00 0.00 0.00 45 1014.5
20240613202104 30 257 4.8 16.1 0.00 0.00 0.00 44 1014.5
20240613201604 30 242 3.2 8.0 0.00 0.00 0.00 46 1014.5
20240613201103 30 260 4.8 11.3 0.00 0.00 0.00 45 1014.6
20240613200604 30 287 1.6 8.0 0.00 0.00 0.00 44 1014.7
20240613200104 31 255 4.8 19.3 0.00 0.00 0.00 43 1014.8
20240613195604 31 211 3.2 16.1 0.00 0.00 0.00 43 1014.8
20240613194604 31 231 6.4 12.9 0.00 0.00 0.00 40 1014.9
20240613194105 31 265 11.3 19.3 0.00 0.00 0.00 38 1015.0
20240613193604 31 260 3.2 14.5 0.00 0.00 0.00 39 1015.0
20240613193104 31 274 4.8 19.3 0.00 0.00 0.00 39 1015.1
20240613192603 31 329 6.4 22.5 0.00 0.00 0.00 38 1015.1
20240613192104 31 319 4.8 14.5 0.00 0.00 0.00 38 1015.1
20240613191604 31 302 4.8 19.3 0.00 0.00 0.00 37 1015.2
20240613191103 31 314 3.2 12.9 0.00 0.00 0.00 40 1015.3
20240613190105 31 311 8.0 19.3 0.00 0.00 0.00 37 1015.4
20240613185603 31 315 8.0 16.1 0.00 0.00 0.00 42 1015.5
20240613185105 31 301 6.4 19.3 0.00 0.00 0.00 42 1015.6
20240613184604 30 302 4.8 11.3 0.00 0.00 0.00 42 1015.6
20240613184105 31 237 3.2 11.3 0.00 0.00 0.00 43 1015.6
20240613183605 30 259 3.2 12.9 0.00 0.00 0.00 43 1015.6
20240613183104 31 307 8.0 25.7 0.00 0.00 0.00 38 1015.7
20240613182604 31 299 8.0 24.1 0.00 0.00 0.00 39 1015.7
20240613181604 30 315 9.7 16.1 0.00 0.00 0.00 39 1015.8
20240613181104 30 339 1.6 14.5 0.00 0.00 0.00 41 1015.9
20240613180603 30 274 9.7 22.5 0.00 0.00 0.00 43 1015.9
20240613180104 30 309 4.8 19.3 0.00 0.00 0.00 44 1015.9
20240613175604 30 266 9.7 19.3 0.00 0.00 0.00 40 1015.9
20240613175104 30 257 3.2 11.3 0.00 0.00 0.00 46 1015.9
20240613174604 30 235 6.4 19.3 0.00 0.00 0.00 43 1016.0
20240613174104 30 294 4.8 19.3 0.00 0.00 0.00 44 1016.0
20240613173605 30 269 8.0 14.5 0.00 0.00 0.00 41 1016.1
20240613173104 30 268 3.2 9.7 0.00 0.00 0.00 43 1016.1
20240613172604 30 249 6.4 19.3 0.00 0.00 0.00 45 1016.1
20240613172104 30 341 9.7 19.3 0.00 0.00 0.00 41 1016.0
20240613171604 30 330 3.2 9.7 0.00 0.00 0.00 41 1016.0
20240613171104 30 280 4.8 14.5 0.00 0.00 0.00 44 1016.2
20240613170604 29 15 3.2 4.8 0.00 0.00 0.00 46 1016.2
20240613170105 28 200 3.2 8.0 0.00 0.00 0.00 50 1016.4
20240613165605 28 287 9.7 16.1 0.00 0.00 0.00 43 1016.5
20240613165105 28 307 8.0 19.3 0.00 0.00 0.00 45 1016.6
20240613164604 28 337 4.8 16.1 0.00 0.00 0.00 46 1016.5
20240613164104 28 338 9.7 19.3 0.00 0.00 0.00 45 1016.6
20240613163604 28 293 4.8 11.3 0.00 0.00 0.00 49 1016.6
20240613163104 28 273 8.0 14.5 0.00 0.00 0.00 47 1016.7
20240613162605 28 302 6.4 16.1 0.00 0.00 0.00 47 1016.7
20240613162105 28 314 3.2 16.1 0.00 0.00 0.00 50 1016.7
20240613161604 27 345 8.0 12.9 0.00 0.00 0.00 49 1016.8
20240613161104 27 310 8.0 11.3 0.00 0.00 0.00 51 1016.8
20240613160604 27 270 4.8 14.5 0.00 0.00 0.00 51 1016.8
20240613160104 27 12 3.2 11.3 0.00 0.00 0.00 53 1016.9
20240613155604 27 5 4.8 12.9 0.00 0.00 0.00 51 1017.0
20240613155104 27 296 4.8 16.1 0.00 0.00 0.00 53 1017.0
20240613154604 27 9 1.6 8.0 0.00 0.00 0.00 55 1017.0
20240613154104 27 229 1.6 11.3 0.00 0.00 0.00 57 1017.1
20240613153604 27 344 4.8 11.3 0.00 0.00 0.00 55 1017.1
20240613153105 27 273 3.2 9.7 0.00 0.00 0.00 55 1017.2
20240613152604 26 347 4.8 11.3 0.00 0.00 0.00 56 1017.1
20240613152104 26 343 4.8 11.3 0.00 0.00 0.00 56 1017.1
20240613151604 26 263 3.2 9.7 0.00 0.00 0.00 59 1017.1
20240613150604 25 272 4.8 16.1 0.00 0.00 0.00 59 1017.2
20240613150105 25 311 8.0 19.3 0.00 0.00 0.00 57 1017.3
20240613145604 25 312 6.4 19.3 0.00 0.00 0.00 58 1017.3
20240613145104 25 310 3.2 14.5 0.00 0.00 0.00 58 1017.3
20240613144604 25 301 6.4 12.9 0.00 0.00 0.00 57 1017.3
20240613144104 25 327 6.4 14.5 0.00 0.00 0.00 59 1017.3
20240613143104 24 318 3.2 11.3 0.00 0.00 0.00 64 1017.3
20240613142604 23 20 3.2 12.9 0.00 0.00 0.00 63 1017.3
20240613142103 23 334 3.2 11.3 0.00 0.00 0.00 61 1017.3
20240613141604 23 7 3.2 12.9 0.00 0.00 0.00 62 1017.3
20240613141105 23 288 4.8 12.9 0.00 0.00 0.00 62 1017.5
20240613140605 23 313 4.8 9.7 0.00 0.00 0.00 63 1017.4
20240613140105 22 305 4.8 11.3 0.00 0.00 0.00 64 1017.6
20240613135604 22 331 3.2 9.7 0.00 0.00 0.00 66 1017.5
20240613134604 22 303 8.0 14.5 0.00 0.00 0.00 64 1017.6
20240613134104 22 305 4.8 12.9 0.00 0.00 0.00 66 1017.7
20240613133604 22 305 8.0 12.9 0.00 0.00 0.00 64 1017.8
20240613133104 21 357 3.2 11.3 0.00 0.00 0.00 66 1017.8
20240613132605 21 306 8.0 12.9 0.00 0.00 0.00 65 1017.9
20240613132104 21 317 3.2 11.3 0.00 0.00 0.00 68 1017.9
20240613131603 21 306 4.8 11.3 0.00 0.00 0.00 68 1017.9
20240613130604 21 302 3.2 11.3 0.00 0.00 0.00 71 1018.0
20240613130104 20 313 3.2 8.0 0.00 0.00 0.00 73 1018.1
20240613125604 20 304 3.2 8.0 0.00 0.00 0.00 74 1018.1
20240613125104 20 20 0.0 9.7 0.00 0.00 0.00 78 1018.2
20240613124605 19 307 1.6 4.8 0.00 0.00 0.00 76 1018.2
20240613124104 19 312 3.2 9.7 0.00 0.00 0.00 77 1018.1
20240613123604 18 300 1.6 4.8 0.00 0.00 0.00 79 1018.0
20240613122104 17 325 1.6 4.8 0.00 0.00 0.00 83 1018.0
20240613121604 17 305 3.2 4.8 0.00 0.00 0.00 84 1018.0
20240613121104 17 306 0.0 0.0 0.00 0.00 0.00 85 1018.0
20240613120104 16 306 0.0 0.0 0.00 0.00 0.00 87 1018.0
20240613115604 16 306 0.0 0.0 0.00 0.00 0.00 88 1018.0
20240613115104 16 306 0.0 3.2 0.00 0.00 0.00 88 1018.1